Time;durP1;ratioP1;P1;durP2;ratioP2;P2;SDS_P1;SDS_P2;PMS_P1;PMS_P2;Temp;Humidity;BMP_temperature;BMP_pressure;BME280_temperature;BME280_humidity;BME280_pressure;Samples;Min_cycle;Max_cycle;Signal;HPM_P1;HPM_P2
2021/07/12 00:03:02;;;;;;;6.25;4.85;;;;;;;18.69;77.67;100176.21;2110127;84;28687;-68
2021/07/12 00:06:04;;;;;;;7.70;5.35;;;;;;;18.68;77.94;100171.30;2110344;84;31007;-67
2021/07/12 00:09:07;;;;;;;6.15;4.33;;;;;;;18.69;77.96;100169.43;2110264;84;32966;-66
2021/07/12 00:12:09;;;;;;;4.45;3.85;;;;;;;18.70;77.84;100164.37;2110308;84;29342;-68
2021/07/12 00:15:16;;;;;;;4.80;4.40;;;;;;;18.72;77.96;100168.30;2110457;84;27562;-68
2021/07/12 00:18:17;;;;;;;5.35;4.65;;;;;;;18.75;78.01;100162.13;2109313;84;28822;-68
2021/07/12 00:21:20;;;;;;;5.25;4.75;;;;;;;18.79;78.05;100162.20;2108963;84;31159;-67
2021/07/12 00:24:22;;;;;;;8.15;4.75;;;;;;;18.83;78.15;100161.45;2109116;84;32963;-70
2021/07/12 00:27:25;;;;;;;8.93;4.45;;;;;;;18.87;77.98;100166.11;2110002;84;29296;-67
2021/07/12 00:30:28;;;;;;;7.12;3.90;;;;;;;18.90;78.07;100162.63;2110148;84;27701;-70
2021/07/12 00:33:32;;;;;;;4.45;4.05;;;;;;;18.97;78.21;100176.56;2110204;84;28653;-69
2021/07/12 00:36:34;;;;;;;6.47;4.87;;;;;;;19.03;78.25;100173.31;2110071;84;31243;-67
2021/07/12 00:39:36;;;;;;;7.15;4.72;;;;;;;19.07;78.19;100169.83;2110239;84;33570;-69
2021/07/12 00:42:39;;;;;;;5.05;4.55;;;;;;;19.11;78.18;100171.28;2110284;84;29409;-66
2021/07/12 00:45:41;;;;;;;5.40;4.42;;;;;;;19.13;78.02;100174.73;2110427;84;27889;-71
2021/07/12 00:48:44;;;;;;;6.37;4.65;;;;;;;19.17;77.97;100175.31;2110300;84;28678;-67
2021/07/12 00:51:48;;;;;;;6.70;4.80;;;;;;;19.21;78.07;100176.77;2110159;83;31081;-70
2021/07/12 00:54:50;;;;;;;4.93;4.17;;;;;;;19.23;78.13;100174.78;2110547;84;32953;-68
2021/07/12 00:57:53;;;;;;;5.75;5.08;;;;;;;19.25;78.08;100179.59;2110275;84;29335;-68
2021/07/12 01:00:59;;;;;;;6.28;3.85;;;;;;;19.27;78.07;100176.23;2110333;84;27493;-71
2021/07/12 01:04:03;;;;;;;4.70;3.92;;;;;;;19.30;77.97;100173.73;2110190;84;28653;-69
2021/07/12 01:07:10;;;;;;;10.85;4.55;;;;;;;19.30;77.86;100175.94;2110269;84;31030;-69
2021/07/12 01:10:12;;;;;;;9.03;4.97;;;;;;;19.31;77.83;100182.25;2110254;84;33020;-69
2021/07/12 01:13:39;;;;;;;9.68;5.20;;;;;;;19.31;77.86;100182.25;2110455;84;29358;-69
2021/07/12 01:17:08;;;;;;;6.22;4.72;;;;;;;19.30;77.85;100177.30;1971617;90;27733;-66
2021/07/12 01:21:02;;;;;;;5.22;4.72;;;;;;;19.28;77.88;100176.09;1971246;90;28690;-70
2021/07/12 01:24:38;;;;;;;6.90;4.53;;;;;;;19.25;77.75;100187.22;1971104;90;31092;-71
2021/07/12 01:28:15;;;;;;;7.65;5.03;;;;;;;19.25;77.80;100198.09;1969896;89;33013;-72
2021/07/12 01:32:05;;;;;;;7.35;4.87;;;;;;;19.23;77.62;100198.72;1971489;90;29333;-69
2021/07/12 01:35:21;;;;;;;10.78;5.28;;;;;;;19.20;77.58;100196.77;1971306;90;28094;-72
2021/07/12 01:38:48;;;;;;;7.50;5.45;;;;;;;19.16;77.49;100189.88;1970596;90;28840;-72
2021/07/12 01:42:14;;;;;;;5.47;4.72;;;;;;;19.11;77.57;100193.86;1971178;89;31101;-70
2021/07/12 01:45:19;;;;;;;6.97;4.92;;;;;;;19.08;77.54;100190.08;1971315;90;32973;-79
2021/07/12 01:48:33;;;;;;;8.73;6.28;;;;;;;19.05;77.63;100174.53;1971286;90;29332;-72
2021/07/12 01:51:40;;;;;;;9.28;6.22;;;;;;;19.03;77.72;100173.83;1971562;89;27970;-73
2021/07/12 01:55:03;;;;;;;7.25;6.55;;;;;;;19.03;77.84;100176.03;2077650;84;28672;-70
2021/07/12 01:58:13;;;;;;;7.65;6.03;;;;;;;19.00;77.86;100161.36;2103904;84;31150;-72
2021/07/12 02:01:16;;;;;;;15.05;7.72;;;;;;;18.99;77.87;100165.07;2110750;84;33078;-73
2021/07/12 02:04:22;;;;;;;7.58;6.65;;;;;;;19.00;77.94;100153.73;2111172;84;29385;-74
2021/07/12 02:07:26;;;;;;;11.57;7.30;;;;;;;18.99;77.97;100144.70;2087030;84;27878;-72
2021/07/12 02:10:30;;;;;;;9.63;8.63;;;;;;;18.99;78.10;100125.70;2111623;84;28686;-72
2021/07/12 02:13:36;;;;;;;8.93;8.03;;;;;;;18.98;78.18;100114.00;2087229;84;31035;-72
2021/07/12 02:16:39;;;;;;;7.87;7.03;;;;;;;18.95;78.10;100098.45;2111412;84;32952;-65
2021/07/12 02:19:42;;;;;;;7.60;6.78;;;;;;;18.93;78.15;100099.09;2109129;84;29337;-65
2021/07/12 02:22:47;;;;;;;9.90;7.00;;;;;;;18.91;78.05;100091.06;2111548;84;27890;-70
2021/07/12 02:25:51;;;;;;;8.30;7.25;;;;;;;18.90;78.07;100090.69;2111521;84;28691;-71
2021/07/12 02:28:53;;;;;;;8.88;8.08;;;;;;;18.91;78.15;100092.93;2109299;84;31025;-69
2021/07/12 02:31:56;;;;;;;8.40;7.47;;;;;;;18.90;78.15;100098.84;2111411;84;32958;-70
2021/07/12 02:34:59;;;;;;;7.22;6.53;;;;;;;18.90;78.17;100108.85;2111488;83;29350;-62
2021/07/12 02:38:11;;;;;;;12.88;6.87;;;;;;;18.90;78.15;100111.05;2106178;84;28027;-64
2021/07/12 02:41:16;;;;;;;4.03;3.08;;;;;;;18.92;78.27;100116.37;2108580;83;28707;-68
2021/07/12 02:44:19;;;;;;;12.40;8.45;;;;;;;18.95;78.81;100125.13;2111601;83;31026;-69
2021/07/12 02:47:22;;;;;;;14.33;11.90;;;;;;;19.04;78.96;100123.94;2111369;84;32960;-66
2021/07/12 02:50:27;;;;;;;12.10;10.78;;;;;;;19.10;79.04;100124.76;2111534;83;29332;-66
2021/07/12 02:53:34;;;;;;;13.00;10.10;;;;;;;19.17;78.99;100127.79;2116381;83;27750;-68
2021/07/12 02:56:36;;;;;;;9.38;8.48;;;;;;;19.22;78.88;100133.68;2119657;83;28704;-70
2021/07/12 02:59:38;;;;;;;10.60;9.33;;;;;;;19.27;78.93;100128.20;2119269;83;30939;-71
2021/07/12 03:02:42;;;;;;;10.85;8.85;;;;;;;19.34;78.91;100129.02;2089611;83;33026;-69
2021/07/12 03:05:45;;;;;;;14.85;8.58;;;;;;;19.37;78.84;100131.44;2119707;83;29427;-68
2021/07/12 03:09:08;;;;;;;9.53;8.55;;;;;;;19.39;78.68;100132.16;2119778;83;27563;-70
2021/07/12 03:12:16;;;;;;;10.20;9.18;;;;;;;19.41;78.79;100116.10;2119721;83;28657;-68
2021/07/12 03:15:36;;;;;;;17.85;11.03;;;;;;;19.47;78.90;100124.19;2118730;83;31050;-70
2021/07/12 03:18:52;;;;;;;19.07;11.75;;;;;;;19.52;78.91;100124.65;2119466;83;33095;-68
2021/07/12 03:21:57;;;;;;;11.22;10.23;;;;;;;19.56;78.91;100128.78;2119608;83;29364;-69
2021/07/12 03:25:07;;;;;;;13.22;11.35;;;;;;;19.59;78.93;100110.84;2119750;83;27852;-70
2021/07/12 03:28:11;;;;;;;12.73;11.12;;;;;;;19.61;78.78;100106.61;2119599;83;28669;-68
2021/07/12 03:31:14;;;;;;;12.47;11.17;;;;;;;19.65;78.75;100110.78;2119793;83;31026;-69
2021/07/12 03:34:18;;;;;;;14.03;12.15;;;;;;;19.67;78.81;100109.30;2119492;83;33261;-71
2021/07/12 03:37:20;;;;;;;19.02;12.40;;;;;;;19.70;78.85;100101.72;2119411;83;29330;-70
2021/07/12 03:40:23;;;;;;;13.83;11.85;;;;;;;19.75;78.87;100102.64;2118539;83;27550;-70
2021/07/12 03:43:27;;;;;;;16.85;10.70;;;;;;;19.77;78.87;100095.73;2089997;83;28827;-68
2021/07/12 03:46:30;;;;;;;16.42;11.03;;;;;;;19.83;78.98;100097.86;2118104;83;30962;-68
2021/07/12 03:49:33;;;;;;;14.50;11.45;;;;;;;19.90;79.06;100101.78;2119299;83;33003;-69
2021/07/12 03:52:49;;;;;;;13.72;12.15;;;;;;;19.97;79.12;100117.02;2117832;83;29395;-70
2021/07/12 03:55:52;;;;;;;12.78;10.78;;;;;;;20.02;79.02;100112.88;2108069;84;27610;-70
2021/07/12 03:58:54;;;;;;;12.88;9.98;;;;;;;20.08;79.04;100122.31;2109857;84;28729;-70
2021/07/12 04:01:56;;;;;;;13.50;10.08;;;;;;;20.14;78.84;100133.12;2110252;84;31048;-69
2021/07/12 04:05:02;;;;;;;15.10;12.05;;;;;;;20.18;78.98;100136.80;2110166;84;32769;-71
2021/07/12 04:08:06;;;;;;;12.15;10.88;;;;;;;20.23;78.95;100147.23;2108403;84;29349;-70
2021/07/12 04:11:10;;;;;;;13.53;10.20;;;;;;;20.26;78.97;100150.17;2110383;84;27666;-67
2021/07/12 04:14:13;;;;;;;10.18;9.28;;;;;;;20.31;78.88;100151.45;2110452;84;28824;-68
2021/07/12 04:17:15;;;;;;;11.45;10.18;;;;;;;20.35;78.83;100154.77;2109825;84;31036;-69
2021/07/12 04:20:17;;;;;;;12.07;10.18;;;;;;;20.39;78.68;100153.45;2109233;84;32940;-67
2021/07/12 04:23:19;;;;;;;11.50;10.38;;;;;;;20.43;78.72;100145.87;2109074;84;28984;-70
2021/07/12 04:26:22;;;;;;;11.33;10.23;;;;;;;20.47;78.79;100141.36;2109613;84;27701;-69
2021/07/12 04:29:24;;;;;;;9.58;8.78;;;;;;;20.53;78.62;100147.20;2110307;84;28702;-69
2021/07/12 04:32:26;;;;;;;10.75;9.70;;;;;;;20.57;78.68;100152.72;2110164;84;31035;-68
2021/07/12 04:35:29;;;;;;;12.20;10.93;;;;;;;20.63;78.71;100161.68;2110065;84;33109;-69
2021/07/12 04:38:31;;;;;;;12.60;11.03;;;;;;;20.67;78.59;100159.03;2110222;84;29418;-69
2021/07/12 04:41:33;;;;;;;13.28;12.05;;;;;;;20.70;78.55;100172.84;2109943;84;27692;-69
2021/07/12 04:44:35;;;;;;;16.17;12.82;;;;;;;20.72;78.40;100173.56;2110035;84;28624;-68
2021/07/12 04:47:38;;;;;;;16.70;15.03;;;;;;;20.73;78.37;100165.76;2109977;84;31036;-68
2021/07/12 04:50:41;;;;;;;20.75;15.50;;;;;;;20.78;78.27;100148.48;2109948;84;32964;-69
2021/07/12 04:53:43;;;;;;;24.02;16.67;;;;;;;20.77;78.15;100097.28;2110059;83;29406;-67
2021/07/12 04:56:46;;;;;;;22.87;17.62;;;;;;;20.77;77.98;100075.98;2110414;84;27617;-70
2021/07/12 04:59:48;;;;;;;18.90;14.58;;;;;;;20.76;77.84;100076.50;2110366;84;29283;-66
2021/07/12 05:02:51;;;;;;;17.48;13.43;;;;;;;20.77;78.01;100085.52;2110293;84;31067;-68
2021/07/12 05:05:53;;;;;;;16.95;15.15;;;;;;;20.84;77.89;100087.17;2110035;84;33027;-68
2021/07/12 05:08:56;;;;;;;19.05;14.25;;;;;;;20.86;77.58;100098.74;2110293;84;29376;-69
2021/07/12 05:11:59;;;;;;;21.52;15.35;;;;;;;20.81;77.65;100114.17;2110364;84;27584;-69
2021/07/12 05:15:01;;;;;;;47.98;15.13;;;;;;;20.79;77.53;100102.56;2110200;84;28723;-68
2021/07/12 05:18:04;;;;;;;15.32;12.93;;;;;;;20.68;80.14;100114.96;2110263;84;31028;-70
2021/07/12 05:21:07;;;;;;;18.57;13.30;;;;;;;20.36;81.35;100123.80;2085948;84;32815;-68
2021/07/12 05:24:09;;;;;;;16.32;11.80;;;;;;;20.24;81.28;100120.88;2108157;84;29219;-67
2021/07/12 05:27:11;;;;;;;18.62;13.38;;;;;;;20.10;81.19;100119.47;2110376;84;27958;-71
2021/07/12 05:30:15;;;;;;;13.78;12.47;;;;;;;20.02;81.37;100118.31;2110327;84;28669;-71
2021/07/12 05:33:18;;;;;;;15.67;12.67;;;;;;;19.98;81.38;100114.66;2110576;84;31078;-66
2021/07/12 05:36:20;;;;;;;17.32;12.53;;;;;;;19.93;81.39;100114.22;2110261;84;32830;-66
2021/07/12 05:39:22;;;;;;;14.07;12.68;;;;;;;19.94;81.57;100118.66;2110287;83;29346;-66
2021/07/12 05:42:25;;;;;;;16.85;12.60;;;;;;;19.96;81.61;100120.73;2107925;84;27587;-65
2021/07/12 05:45:28;;;;;;;13.58;12.15;;;;;;;19.98;81.69;100122.30;2110306;84;28722;-64
2021/07/12 05:48:33;;;;;;;12.13;10.95;;;;;;;20.00;81.44;100127.63;2110008;84;55121;-66
2021/07/12 05:51:36;;;;;;;13.40;11.45;;;;;;;20.06;81.55;100140.62;2110081;84;33118;-69
2021/07/12 05:54:40;;;;;;;13.85;12.33;;;;;;;20.11;81.42;100141.08;2085868;84;29409;-69
2021/07/12 05:57:43;;;;;;;13.32;11.93;;;;;;;20.13;81.20;100137.72;2110245;84;27624;-68
2021/07/12 06:00:46;;;;;;;13.93;12.33;;;;;;;20.17;81.19;100146.44;2110161;84;28691;-68
2021/07/12 06:03:50;;;;;;;19.30;11.43;;;;;;;20.21;81.24;100162.84;2110181;84;31081;-69
2021/07/12 06:06:53;;;;;;;12.98;11.57;;;;;;;20.25;81.00;100154.77;2110020;84;33150;-68
2021/07/12 06:09:56;;;;;;;16.05;13.25;;;;;;;20.25;80.99;100153.41;2110334;84;29354;-66
2021/07/12 06:12:59;;;;;;;24.45;13.38;;;;;;;20.24;80.81;100140.80;2110365;84;27620;-66
2021/07/12 06:16:10;;;;;;;14.50;13.00;;;;;;;20.26;80.80;100155.13;2109969;84;28796;-66
2021/07/12 06:19:16;;;;;;;18.05;14.40;;;;;;;20.24;80.64;100156.25;2108876;84;28724;-66
2021/07/12 06:22:22;;;;;;;15.53;13.93;;;;;;;20.23;80.61;100159.97;2110069;84;33030;-66
2021/07/12 06:25:27;;;;;;;16.40;13.98;;;;;;;20.19;80.55;100167.56;2110306;84;29301;-68
2021/07/12 06:28:30;;;;;;;;;;;;;;;20.18;80.49;100171.28;2112673;83;27759;-67
2021/07/12 06:31:36;;;;;;;17.30;15.50;;;;;;;20.10;80.43;100170.62;2108342;84;30958;-66
2021/07/12 06:34:40;;;;;;;22.55;15.50;;;;;;;20.07;80.58;100168.70;2084969;84;31119;-65
2021/07/12 06:37:44;;;;;;;16.77;14.77;;;;;;;20.07;80.65;100173.63;2110335;84;33010;-64
2021/07/12 06:40:49;;;;;;;26.33;15.03;;;;;;;20.06;80.48;100164.27;2110410;84;29379;-64
2021/07/12 06:43:53;;;;;;;;;;;;;;;20.11;80.92;100160.59;2110761;84;28078;-66
2021/07/12 06:46:57;;;;;;;19.35;17.32;;;;;;;20.14;80.67;100157.11;2108775;84;28852;-66
2021/07/12 06:50:06;;;;;;;20.27;16.70;;;;;;;20.19;80.95;100160.77;2107773;84;31060;-68
2021/07/12 06:53:11;;;;;;;20.50;14.78;;;;;;;20.23;80.88;100169.48;2107523;83;33185;-67
2021/07/12 06:56:16;;;;;;;19.17;15.05;;;;;;;20.26;80.71;100162.41;2117963;83;29380;-68
2021/07/12 06:59:19;;;;;;;18.65;14.73;;;;;;;20.27;80.60;100155.97;2119446;83;27866;-67
2021/07/12 07:02:25;;;;;;;17.17;14.53;;;;;;;20.28;80.42;100165.33;2119968;83;28741;-66
2021/07/12 07:05:28;;;;;;;29.63;15.32;;;;;;;20.24;80.36;100163.05;2119941;83;31059;-64
2021/07/12 07:08:32;;;;;;;18.82;14.23;;;;;;;20.22;80.44;100172.72;2113251;83;32949;-65
2021/07/12 07:11:38;;;;;;;15.58;13.40;;;;;;;20.22;80.51;100180.88;2119713;83;29411;-67
2021/07/12 07:14:42;;;;;;;16.67;13.62;;;;;;;20.19;80.65;100186.08;2119591;83;27956;-66
2021/07/12 07:17:47;;;;;;;13.62;12.33;;;;;;;20.15;80.80;100175.16;2112739;83;28693;-67
2021/07/12 07:20:53;;;;;;;176.18;130.87;;;;;;;20.18;81.04;100176.72;2118438;83;31663;-70
2021/07/12 07:23:58;;;;;;;17.50;15.65;;;;;;;20.29;81.29;100182.02;2118922;83;33083;-67
2021/07/12 07:27:03;;;;;;;12.43;11.12;;;;;;;20.42;81.15;100172.22;2119581;83;29331;-68
2021/07/12 07:30:09;;;;;;;13.70;12.03;;;;;;;20.41;80.67;100132.92;2119490;83;27677;-67
2021/07/12 07:33:14;;;;;;;12.88;11.05;;;;;;;20.41;80.67;100132.92;2118960;83;28678;-65
2021/07/12 07:36:18;;;;;;;16.35;11.75;;;;;;;20.65;80.91;100151.52;2119361;83;31080;-66
2021/07/12 07:39:23;;;;;;;14.73;11.88;;;;;;;20.76;80.65;100160.05;2119540;83;33009;-71
2021/07/12 07:42:28;;;;;;;15.80;13.62;;;;;;;20.83;80.53;100161.17;2119468;83;29378;-72
2021/07/12 07:45:33;;;;;;;13.45;12.05;;;;;;;20.86;80.23;100164.09;2119748;83;27889;-68
2021/07/12 07:48:38;;;;;;;;;;;;;;;20.85;80.05;100171.94;2122032;83;28719;-75
2021/07/12 07:51:44;;;;;;;13.15;11.85;;;;;;;20.90;80.10;100168.25;2113745;83;33181;-72
2021/07/12 07:54:47;;;;;;;13.68;12.18;;;;;;;20.94;80.13;100166.44;2119565;83;32973;-70
2021/07/12 07:57:52;;;;;;;11.60;10.50;;;;;;;21.04;80.18;100158.77;2119554;83;29401;-65
2021/07/12 08:00:59;;;;;;;12.60;11.30;;;;;;;21.14;79.83;100171.84;2119611;83;27681;-68
2021/07/12 08:04:04;;;;;;;12.85;10.82;;;;;;;21.23;79.96;100177.77;2119466;83;28709;-65
2021/07/12 08:07:09;;;;;;;12.90;11.53;;;;;;;21.36;79.73;100184.23;2119822;83;31067;-63
2021/07/12 08:10:19;;;;;;;13.93;11.85;;;;;;;21.47;79.71;100180.46;2117887;83;33165;-65
2021/07/12 08:13:22;;;;;;;15.75;11.45;;;;;;;21.53;79.32;100181.72;2119818;83;29473;-67
2021/07/12 08:16:24;;;;;;;12.07;10.88;;;;;;;21.66;79.91;100181.41;2119869;83;27668;-69
2021/07/12 08:19:27;;;;;;;10.43;8.65;;;;;;;21.77;79.82;100175.74;2119689;83;28576;-70
2021/07/12 08:22:30;;;;;;;10.13;9.13;;;;;;;21.91;79.79;100173.02;2119630;83;31112;-68
2021/07/12 08:25:34;;;;;;;11.90;8.05;;;;;;;21.99;79.38;100173.13;2119616;83;32961;-71
2021/07/12 08:28:39;;;;;;;8.48;7.67;;;;;;;22.12;79.25;100163.17;2119544;83;29343;-69
2021/07/12 08:31:43;;;;;;;7.78;7.08;;;;;;;22.28;79.32;100157.03;2119697;83;27718;-67
2021/07/12 08:34:46;;;;;;;7.45;6.75;;;;;;;22.46;78.99;100161.66;2119997;83;28738;-70
2021/07/12 08:37:52;;;;;;;8.73;7.53;;;;;;;22.44;77.48;100156.86;2119705;83;31072;-70
2021/07/12 08:40:56;;;;;;;8.00;7.30;;;;;;;22.48;77.82;100152.81;2119382;83;32988;-69
2021/07/12 08:43:58;;;;;;;8.68;7.87;;;;;;;22.56;78.15;100156.95;2119825;83;29342;-70
2021/07/12 08:47:01;;;;;;;9.03;8.23;;;;;;;22.75;78.62;100170.92;2119521;83;27890;-67
2021/07/12 08:50:06;;;;;;;9.03;7.67;;;;;;;22.92;78.32;100175.13;2119383;83;28970;-68
2021/07/12 08:53:12;;;;;;;8.58;7.80;;;;;;;23.09;77.55;100177.98;2119756;83;30864;-66
2021/07/12 08:56:15;;;;;;;8.08;7.28;;;;;;;23.03;75.78;100174.02;2111819;83;33066;-68
2021/07/12 08:59:36;;;;;;;9.20;8.30;;;;;;;23.03;76.27;100174.02;2110016;84;29409;-68
2021/07/12 09:02:41;;;;;;;7.50;6.80;;;;;;;23.19;77.24;100163.71;2110487;84;27736;-67
2021/07/12 09:06:04;;;;;;;10.20;7.17;;;;;;;23.46;76.14;100169.53;2108126;84;28727;-70
2021/07/12 09:09:09;;;;;;;7.95;7.15;;;;;;;23.60;76.30;100163.08;2109068;84;31029;-66
2021/07/12 09:12:19;;;;;;;8.03;7.33;;;;;;;23.76;76.03;100148.09;2109301;84;33128;-65
2021/07/12 09:15:27;;;;;;;8.10;7.40;;;;;;;23.89;75.81;100135.31;2106082;84;29726;-63
2021/07/12 09:18:39;;;;;;;8.23;7.42;;;;;;;24.09;75.06;100141.86;2108882;84;27866;-67
2021/07/12 09:21:54;;;;;;;8.40;6.55;;;;;;;24.20;74.58;100147.03;2107463;84;28666;-65
2021/07/12 09:24:56;;;;;;;7.83;7.17;;;;;;;24.39;74.19;100130.78;2110266;84;31036;-68
2021/07/12 09:28:00;;;;;;;6.35;5.80;;;;;;;24.81;74.89;100133.00;2086159;84;33010;-65
2021/07/12 09:31:26;;;;;;;5.87;5.35;;;;;;;25.15;73.27;100137.91;2110119;84;29408;-65
2021/07/12 09:34:32;;;;;;;7.65;6.83;;;;;;;25.25;71.47;100131.70;2107462;84;27971;-68
2021/07/12 09:37:39;;;;;;;7.45;6.22;;;;;;;25.16;71.79;100132.24;2107458;84;28622;-63
2021/07/12 09:40:45;;;;;;;5.97;5.33;;;;;;;25.14;70.50;100140.31;2110425;84;31032;-64
2021/07/12 09:43:54;;;;;;;6.87;5.80;;;;;;;25.03;70.78;100137.42;2107317;84;33006;-62
2021/07/12 09:47:09;;;;;;;5.70;5.30;;;;;;;24.96;71.08;100133.66;2105524;84;29394;-62
2021/07/12 09:50:21;;;;;;;6.12;5.65;;;;;;;25.01;70.10;100138.95;2107138;84;27965;-65
2021/07/12 09:53:33;;;;;;;7.33;5.75;;;;;;;25.15;70.33;100132.43;2109966;84;28694;-71
2021/07/12 09:56:35;;;;;;;6.50;5.87;;;;;;;25.29;70.96;100127.58;2117266;83;31228;-70
2021/07/12 10:00:02;;;;;;;6.10;5.60;;;;;;;25.47;71.09;100130.63;2119367;83;33036;-70
2021/07/12 10:03:07;;;;;;;6.42;5.83;;;;;;;25.62;70.63;100135.70;2119745;83;29501;-71
2021/07/12 10:06:11;;;;;;;;;;;;;;;25.51;69.25;100133.87;2122446;83;27914;-68
2021/07/12 10:09:21;;;;;;;7.55;6.85;;;;;;;25.47;69.33;100132.00;2119586;83;28715;-68
2021/07/12 10:12:24;;;;;;;7.67;6.97;;;;;;;25.42;68.16;100131.14;2119618;83;31024;-68
2021/07/12 10:15:28;;;;;;;7.87;7.00;;;;;;;25.42;68.40;100131.67;2119332;83;33079;-65
2021/07/12 10:18:33;;;;;;;8.53;7.72;;;;;;;25.51;68.67;100129.22;2119501;83;29392;-68
2021/07/12 10:21:51;;;;;;;7.90;7.12;;;;;;;25.52;67.64;100124.08;2119478;83;28006;-66
2021/07/12 10:25:07;;;;;;;9.20;7.78;;;;;;;25.52;67.96;100119.95;2119375;83;28700;-65
2021/07/12 10:28:15;;;;;;;6.97;6.28;;;;;;;25.65;68.54;100113.91;2002237;88;31075;-64
2021/07/12 10:31:25;;;;;;;6.60;6.05;;;;;;;25.65;66.59;100111.16;2007183;88;33024;-66
2021/07/12 10:34:39;;;;;;;6.75;5.70;;;;;;;25.63;66.06;100109.11;2007261;88;29452;-62
2021/07/12 10:37:54;;;;;;;6.80;4.85;;;;;;;25.69;66.92;100104.28;2007299;88;28213;-65
2021/07/12 10:41:09;;;;;;;6.58;5.97;;;;;;;25.91;67.15;100097.11;1986426;88;27764;-64
2021/07/12 10:44:21;;;;;;;;;;;;;;;26.14;67.59;100097.67;2003434;88;31085;-66
2021/07/12 10:48:07;;;;;;;9.95;9.05;;;;;;;26.08;63.97;100088.76;2007164;88;33132;-68
2021/07/12 10:51:25;;;;;;;5.83;5.08;;;;;;;25.83;64.32;100082.05;1909447;93;28120;-66
2021/07/12 10:54:30;;;;;;;6.50;5.92;;;;;;;25.78;64.93;100079.02;1911752;93;27966;-68
2021/07/12 10:57:33;;;;;;;8.45;7.65;;;;;;;25.85;65.54;100087.38;1890908;93;28781;-67
2021/07/12 11:00:40;;;;;;;6.97;6.12;;;;;;;25.94;65.18;100083.03;1911857;92;31096;-66
2021/07/12 11:03:51;;;;;;;6.60;6.03;;;;;;;25.88;64.00;100079.62;1911565;93;33035;-66
2021/07/12 11:06:55;;;;;;;4.90;4.50;;;;;;;25.93;65.01;100077.70;2005731;88;29378;-66
2021/07/12 11:10:03;;;;;;;4.53;4.12;;;;;;;25.96;64.72;100075.13;2006188;88;27951;-66
2021/07/12 11:13:11;;;;;;;4.95;4.37;;;;;;;26.10;64.91;100074.33;2005331;88;28941;-66
2021/07/12 11:16:16;;;;;;;5.12;4.72;;;;;;;26.21;64.33;100067.05;2005318;88;31288;-66
2021/07/12 11:19:27;;;;;;;6.25;5.65;;;;;;;26.33;63.85;100064.73;1984822;88;34049;-65
2021/07/12 11:22:30;;;;;;;5.37;4.97;;;;;;;26.21;62.84;100064.84;2005955;88;29542;-71
2021/07/12 11:25:41;;;;;;;4.75;4.35;;;;;;;26.28;63.42;100071.81;2006055;88;28040;-68
2021/07/12 11:28:46;;;;;;;6.00;5.50;;;;;;;26.30;62.46;100063.72;2106376;83;30268;-69
2021/07/12 11:31:55;;;;;;;6.33;5.15;;;;;;;26.18;62.57;100068.79;2119406;83;31059;-67
2021/07/12 11:34:57;;;;;;;5.78;5.28;;;;;;;26.21;62.21;100068.96;2119593;83;32952;-66
2021/07/12 11:38:04;;;;;;;5.25;4.75;;;;;;;26.20;61.77;100066.72;2119598;83;29347;-74
2021/07/12 11:41:07;;;;;;;8.03;7.33;;;;;;;26.13;62.49;100075.88;2090955;83;28023;-70
2021/07/12 11:44:13;;;;;;;6.17;5.60;;;;;;;26.20;61.88;100076.33;2113411;83;28656;-71
2021/07/12 11:47:18;;;;;;;4.65;3.47;;;;;;;26.19;61.13;100065.01;2119457;83;31049;-71
2021/07/12 11:50:30;;;;;;;4.08;3.67;;;;;;;26.12;59.95;100064.55;2091339;83;32985;-75
2021/07/12 11:53:33;;;;;;;3.80;3.40;;;;;;;26.11;60.78;100064.19;2119428;83;29376;-70
2021/07/12 11:56:37;;;;;;;4.67;4.30;;;;;;;26.08;59.93;100064.89;2114210;83;27967;-67
2021/07/12 11:59:41;;;;;;;7.83;4.40;;;;;;;25.87;59.95;100058.70;2110563;84;28693;-66
2021/07/12 12:02:46;;;;;;;5.58;4.22;;;;;;;25.75;59.83;100058.27;2086004;84;31054;-64
2021/07/12 12:06:00;;;;;;;3.47;3.27;;;;;;;25.70;60.38;100047.00;2107143;84;33752;-64
2021/07/12 12:09:05;;;;;;;3.47;2.83;;;;;;;25.71;59.78;100040.98;2107507;84;29336;-65
2021/07/12 12:12:07;;;;;;;4.25;3.55;;;;;;;25.57;59.10;100045.34;2110474;84;27621;-67
2021/07/12 12:15:16;;;;;;;3.47;3.17;;;;;;;25.46;58.60;100044.73;2085819;84;28696;-66
2021/07/12 12:18:23;;;;;;;46.15;39.55;;;;;;;25.40;59.33;100039.09;2109483;84;31038;-66
2021/07/12 12:21:26;;;;;;;11.38;10.38;;;;;;;25.46;59.43;100031.55;2108868;84;33044;-64
2021/07/12 12:24:33;;;;;;;5.75;3.45;;;;;;;25.45;59.51;100026.56;2109751;84;29376;-65
2021/07/12 12:27:38;;;;;;;2.87;2.67;;;;;;;25.46;59.78;100022.80;2110379;84;27684;-65
2021/07/12 12:30:45;;;;;;;3.50;3.20;;;;;;;25.45;58.46;100023.83;2110512;84;28654;-68
2021/07/12 12:34:18;;;;;;;5.15;3.40;;;;;;;25.30;58.52;100022.86;2107373;84;30914;-65
2021/07/12 12:37:18;;;;;;;4.00;3.47;;;;;;;25.17;59.22;100011.96;2105311;84;33016;-66
2021/07/12 12:40:24;;;;;;;3.45;3.17;;;;;;;25.13;59.53;100013.34;2126746;78;33007;-64
2021/07/12 12:43:27;;;;;;;3.58;2.92;;;;;;;25.12;58.87;100013.00;2074885;85;27705;-62
2021/07/12 12:46:29;;;;;;;3.58;3.17;;;;;;;25.02;59.06;100011.00;2074578;85;29943;-63
2021/07/12 12:49:35;;;;;;;5.03;3.55;;;;;;;24.98;59.44;100008.28;2074501;85;32042;-62
2021/07/12 12:52:38;;;;;;;3.70;3.15;;;;;;;24.98;59.62;99992.70;2074787;85;32990;-61
2021/07/12 12:55:40;;;;;;;3.75;3.25;;;;;;;25.02;60.10;99989.92;2074571;85;30461;-62
2021/07/12 12:58:42;;;;;;;3.17;2.98;;;;;;;25.12;60.74;99982.02;2022693;85;27830;-61
2021/07/12 13:01:46;;;;;;;4.50;3.33;;;;;;;25.21;59.12;99984.19;2104260;84;28715;-62
2021/07/12 13:04:55;;;;;;;;;;;;;;;25.22;59.75;99981.79;2106979;84;31059;-62
2021/07/12 13:07:58;;;;;;;6.95;5.12;;;;;;;25.18;59.39;99973.05;2104395;84;32993;-62
2021/07/12 13:11:02;;;;;;;3.85;3.52;;;;;;;25.13;59.50;99969.48;2080593;84;30160;-62
2021/07/12 13:14:04;;;;;;;4.00;3.67;;;;;;;25.13;59.25;99976.87;2075197;85;27600;-62
2021/07/12 13:17:13;;;;;;;4.97;4.58;;;;;;;25.10;59.51;99972.58;2074625;85;29185;-63
2021/07/12 13:20:22;;;;;;;4.85;4.00;;;;;;;25.06;58.96;99975.36;2074816;85;31078;-63
2021/07/12 13:23:28;;;;;;;4.30;3.90;;;;;;;24.99;58.99;99975.20;2074402;84;34292;-62
2021/07/12 13:26:31;;;;;;;4.08;3.77;;;;;;;24.94;58.83;99970.79;2074963;85;29346;-62
2021/07/12 13:29:33;;;;;;;4.53;4.12;;;;;;;24.84;58.99;99961.91;2104314;84;28165;-63
2021/07/12 13:32:36;;;;;;;4.97;4.08;;;;;;;24.76;59.30;99964.17;2074808;85;29521;-62
2021/07/12 13:35:39;;;;;;;5.25;4.75;;;;;;;24.63;58.79;99972.07;2074468;85;32418;-62
2021/07/12 13:38:41;;;;;;;4.30;3.90;;;;;;;24.54;59.75;99969.87;2074407;85;34027;-62
2021/07/12 13:41:43;;;;;;;4.12;3.72;;;;;;;24.55;59.71;99960.12;2074426;84;29725;-63
2021/07/12 13:44:46;;;;;;;4.65;4.25;;;;;;;24.57;59.58;99959.94;2104380;84;27650;-62
2021/07/12 13:47:49;;;;;;;4.30;4.00;;;;;;;24.55;59.59;99948.30;2074583;85;29390;-63
2021/07/12 13:50:52;;;;;;;4.28;3.87;;;;;;;24.59;59.99;99944.19;2074468;85;32410;-63
2021/07/12 13:53:54;;;;;;;4.17;3.77;;;;;;;24.66;59.92;99938.85;2074324;85;34181;-66
2021/07/12 13:56:56;;;;;;;6.67;3.85;;;;;;;24.68;59.55;99934.89;2074855;85;29177;-64
2021/07/12 13:59:58;;;;;;;3.80;3.50;;;;;;;24.69;59.35;99931.66;2074533;85;27735;-74
2021/07/12 14:03:00;;;;;;;3.77;3.12;;;;;;;24.70;59.05;99931.50;2074660;85;28652;-69
2021/07/12 14:21:53;;;;;;;3.40;3.20;;;;;;;24.92;57.76;99921.28;2151652;78;27597;-68
2021/07/12 14:24:54;;;;;;;5.45;3.33;;;;;;;25.00;58.53;99912.50;2130021;83;32756;-62
2021/07/12 14:27:56;;;;;;;3.67;3.15;;;;;;;25.07;58.25;99910.42;2167570;81;29413;-66
2021/07/12 14:31:03;;;;;;;3.35;3.10;;;;;;;25.11;58.20;99924.11;2182207;80;27705;-64
2021/07/12 14:34:06;;;;;;;5.62;3.42;;;;;;;25.12;58.34;99917.59;2200174;80;29471;-67
2021/07/12 14:37:08;;;;;;;3.42;3.10;;;;;;;25.12;58.40;99915.69;2162216;82;31023;-71
2021/07/12 14:40:11;;;;;;;4.08;3.17;;;;;;;25.10;57.89;99924.61;2162325;82;33781;-74